Time;durP1;ratioP1;P1;durP2;ratioP2;P2;SDS_P1;SDS_P2;PMS_P1;PMS_P2;Temp;Humidity;BMP_temperature;BMP_pressure;BME280_temperature;BME280_humidity;BME280_pressure;Samples;Min_cycle;Max_cycle;Signal;HPM_P1;HPM_P2
2023/02/02 00:01:19;;;;;;;;;;;;;;;3.52;100.00;96017.06;10534734;28;1982;-72
2023/02/02 00:06:22;;;;;;;;;;;;;;;3.54;100.00;96022.94;10531345;28;2063;-72
2023/02/02 00:11:24;;;;;;;;;;;;;;;3.50;100.00;96021.78;10534695;28;2057;-73
2023/02/02 00:16:27;;;;;;;;;;;;;;;3.39;100.00;96025.19;10528110;28;2083;-75
2023/02/02 00:21:29;;;;;;;;;;;;;;;3.28;100.00;96033.88;10528212;28;1973;-75
2023/02/02 00:26:32;;;;;;;;;;;;;;;3.19;100.00;96023.56;10529155;28;2146;-73
2023/02/02 00:31:34;;;;;;;;;;;;;;;3.15;100.00;96024.22;10521677;28;2193;-71
2023/02/02 00:36:36;;;;;;;;;;;;;;;3.13;100.00;96005.03;10528893;28;2042;-71
2023/02/02 00:41:39;;;;;;;;;;;;;;;3.12;100.00;96030.78;10514136;28;2029;-74
2023/02/02 00:46:42;;;;;;;;;;;;;;;3.06;100.00;95999.78;10529783;28;2203;-73
2023/02/02 00:51:44;;;;;;;;;;;;;;;3.06;100.00;96030.84;10537297;28;2064;-73
2023/02/02 00:56:46;;;;;;;;;;;;;;;2.96;100.00;96020.72;10526543;28;2076;-72
2023/02/02 01:01:49;;;;;;;;;;;;;;;2.87;100.00;96014.91;10523862;28;2001;-72
2023/02/02 01:06:51;;;;;;;;;;;;;;;2.81;100.00;96020.28;10524549;28;2005;-75
2023/02/02 01:11:54;;;;;;;;;;;;;;;2.78;100.00;96028.66;10526350;28;2025;-73
2023/02/02 01:16:56;;;;;;;;;;;;;;;2.72;100.00;96022.38;10523934;28;2122;-72
2023/02/02 01:21:58;;;;;;;;;;;;;;;2.77;100.00;96021.72;10532189;28;2082;-71
2023/02/02 01:27:03;;;;;;;;;;;;;;;2.78;100.00;96024.16;10524767;28;2066;-71
2023/02/02 01:32:05;;;;;;;;;;;;;;;2.78;100.00;96012.72;10535569;28;2081;-72
2023/02/02 01:37:07;;;;;;;;;;;;;;;2.87;100.00;96016.75;10534049;28;2121;-71
2023/02/02 01:42:10;;;;;;;;;;;;;;;2.89;100.00;96012.00;10524307;28;2013;-71
2023/02/02 01:47:12;;;;;;;;;;;;;;;2.89;100.00;95993.44;10529490;28;2033;-72
2023/02/02 01:52:14;;;;;;;;;;;;;;;2.92;100.00;95987.66;10532288;28;2088;-71
2023/02/02 01:57:17;;;;;;;;;;;;;;;3.02;100.00;95989.81;10529173;28;2064;-72
2023/02/02 02:02:20;;;;;;;;;;;;;;;3.02;100.00;95990.63;10533605;28;2028;-73
2023/02/02 02:07:22;;;;;;;;;;;;;;;3.05;100.00;95971.59;10536863;28;2144;-72
2023/02/02 02:12:24;;;;;;;;;;;;;;;3.10;100.00;95958.47;10522128;28;2078;-71
2023/02/02 02:17:27;;;;;;;;;;;;;;;3.12;100.00;95980.31;10504904;28;2041;-71
2023/02/02 02:27:50;;;;;;;;;;;;;;;3.13;100.00;95979.28;10528549;28;2072;-73
2023/02/02 02:32:52;;;;;;;;;;;;;;;3.17;100.00;95967.16;10530934;28;2204;-70
2023/02/02 02:37:55;;;;;;;;;;;;;;;3.26;100.00;95983.63;10524385;28;2457;-72
2023/02/02 02:42:57;;;;;;;;;;;;;;;3.21;100.00;95986.94;10518239;28;1942;-72
2023/02/02 02:47:59;;;;;;;;;;;;;;;3.21;100.00;95981.63;10515129;28;2064;-74
2023/02/02 02:53:02;;;;;;;;;;;;;;;3.30;100.00;95968.84;10525899;28;1997;-72
2023/02/02 02:58:04;;;;;;;;;;;;;;;3.25;100.00;95974.03;10526463;28;2076;-74
2023/02/02 03:03:07;;;;;;;;;;;;;;;3.24;100.00;95983.88;10520865;28;2176;-73
2023/02/02 03:08:09;;;;;;;;;;;;;;;3.27;100.00;95981.78;10528992;28;2076;-74
2023/02/02 03:13:12;;;;;;;;;;;;;;;3.32;100.00;95968.66;10519739;28;2072;-73
2023/02/02 03:18:15;;;;;;;;;;;;;;;3.27;100.00;95995.06;10518284;28;2089;-73
2023/02/02 03:23:17;;;;;;;;;;;;;;;2.98;100.00;95976.16;10520576;28;2039;-73
2023/02/02 03:28:19;;;;;;;;;;;;;;;2.91;100.00;95999.31;10527218;28;2067;-74
2023/02/02 03:33:22;;;;;;;;;;;;;;;2.83;100.00;96003.09;10530141;28;2106;-72
2023/02/02 03:38:25;;;;;;;;;;;;;;;2.75;100.00;96021.97;10531267;28;2121;-73
2023/02/02 03:43:27;;;;;;;;;;;;;;;2.64;100.00;96012.84;10531246;28;2028;-73
2023/02/02 03:48:30;;;;;;;;;;;;;;;2.63;100.00;96011.22;10525802;28;1997;-73
2023/02/02 03:53:32;;;;;;;;;;;;;;;2.74;100.00;96027.50;10535808;28;2080;-73
2023/02/02 03:58:35;;;;;;;;;;;;;;;2.82;100.00;96019.25;10536063;28;2083;-74
2023/02/02 04:03:37;;;;;;;;;;;;;;;2.85;100.00;95997.53;10529873;28;2006;-73
2023/02/02 04:08:39;;;;;;;;;;;;;;;2.87;100.00;96011.44;10535918;28;2059;-72
2023/02/02 04:13:42;;;;;;;;;;;;;;;2.92;100.00;95998.28;10530661;28;2033;-72
2023/02/02 04:18:44;;;;;;;;;;;;;;;2.87;100.00;96011.44;10528913;28;2101;-72
2023/02/02 04:23:48;;;;;;;;;;;;;;;2.82;100.00;96006.78;10536572;28;2053;-74
2023/02/02 04:28:51;;;;;;;;;;;;;;;2.87;100.00;96016.75;10532221;28;2037;-73
2023/02/02 04:33:53;;;;;;;;;;;;;;;2.89;100.00;96030.59;10535089;28;2085;-73
2023/02/02 04:38:56;;;;;;;;;;;;;;;2.76;100.00;96025.41;10523096;28;2066;-73
2023/02/02 04:43:58;;;;;;;;;;;;;;;2.58;100.00;96024.34;10526876;28;2068;-72
2023/02/02 04:49:00;;;;;;;;;;;;;;;2.65;100.00;96013.66;10524444;28;2024;-72
2023/02/02 04:54:03;;;;;;;;;;;;;;;2.74;100.00;96015.03;10526272;28;2041;-72
2023/02/02 04:59:05;;;;;;;;;;;;;;;2.87;100.00;96011.44;10531189;28;2406;-73
2023/02/02 05:04:07;;;;;;;;;;;;;;;2.93;100.00;96018.53;10522513;28;1994;-72
2023/02/02 05:09:10;;;;;;;;;;;;;;;2.98;100.00;96037.25;10527574;28;1974;-75
2023/02/02 05:14:15;;;;;;;;;;;;;;;3.04;100.00;96023.09;10507819;28;2071;-73
2023/02/02 05:19:18;;;;;;;;;;;;;;;3.05;100.00;96014.09;10524060;28;2343;-78
2023/02/02 05:24:20;;;;;;;;;;;;;;;3.00;100.00;96024.56;10520592;28;2063;-77
2023/02/02 05:29:23;;;;;;;;;;;;;;;3.03;100.00;96063.97;10522617;28;2072;-74
2023/02/02 05:34:25;;;;;;;;;;;;;;;2.92;100.00;96030.97;10520598;28;2063;-72
2023/02/02 05:39:28;;;;;;;;;;;;;;;2.94;100.00;96044.03;10519885;28;2053;-70
2023/02/02 05:44:30;;;;;;;;;;;;;;;2.89;100.00;96041.22;10526432;28;2089;-72
2023/02/02 05:49:32;;;;;;;;;;;;;;;2.87;100.00;96049.41;10524592;28;2021;-72
2023/02/02 05:54:35;;;;;;;;;;;;;;;2.88;100.00;96044.91;10523218;28;2179;-72
2023/02/02 05:59:37;;;;;;;;;;;;;;;2.93;100.00;96043.22;10523545;28;2029;-73
2023/02/02 06:04:40;;;;;;;;;;;;;;;2.96;100.00;96031.34;10523172;28;2077;-70
2023/02/02 06:09:42;;;;;;;;;;;;;;;2.98;100.00;96031.94;10518636;28;2036;-70
2023/02/02 06:14:45;;;;;;;;;;;;;;;3.03;100.00;96058.66;10519003;28;2069;-71
2023/02/02 06:19:47;;;;;;;;;;;;;;;2.96;100.00;96048.09;10518360;28;2010;-72
2023/02/02 06:24:52;;;;;;;;;;;;;;;2.96;100.00;96057.91;10524199;28;2005;-73
2023/02/02 06:29:54;;;;;;;;;;;;;;;3.00;100.00;96048.47;10514018;28;2181;-72
2023/02/02 06:34:57;;;;;;;;;;;;;;;3.04;100.00;96044.34;10522162;28;2085;-72
2023/02/02 06:39:59;;;;;;;;;;;;;;;3.09;100.00;96041.03;10523543;28;2183;-72
2023/02/02 06:45:02;;;;;;;;;;;;;;;3.15;100.00;96059.56;10525279;28;2183;-73
2023/02/02 06:50:04;;;;;;;;;;;;;;;3.19;100.00;96055.44;10532549;28;1946;-72
2023/02/02 06:55:07;;;;;;;;;;;;;;;3.23;100.00;96038.00;10527792;28;2053;-74
2023/02/02 07:00:09;;;;;;;;;;;;;;;3.25;100.00;96065.19;10517720;28;2026;-72
2023/02/02 07:05:11;;;;;;;;;;;;;;;3.29;100.00;96067.38;10522504;28;2114;-72
2023/02/02 07:10:14;;;;;;;;;;;;;;;3.23;100.00;96093.78;10521499;28;1946;-73
2023/02/02 07:15:36;;;;;;;;;;;;;;;3.25;100.00;96091.75;10525780;28;2124;-74
2023/02/02 07:20:39;;;;;;;;;;;;;;;3.33;100.00;96072.03;10523928;28;1970;-74
2023/02/02 07:25:42;;;;;;;;;;;;;;;3.33;100.00;96084.53;10513591;28;2014;-77
2023/02/02 07:30:45;;;;;;;;;;;;;;;3.43;100.00;96095.44;10520339;28;2222;-74
2023/02/02 07:35:47;;;;;;;;;;;;;;;3.47;100.00;96116.03;10522510;28;2123;-73
2023/02/02 07:40:50;;;;;;;;;;;;;;;3.48;100.00;96116.84;10517553;28;2099;-73
2023/02/02 07:45:52;;;;;;;;;;;;;;;3.42;100.00;96121.19;10524670;28;2064;-74
2023/02/02 07:50:55;;;;;;;;;;;;;;;3.37;100.00;96107.78;10526973;28;2074;-74
2023/02/02 07:55:58;;;;;;;;;;;;;;;3.33;100.00;96132.34;10525970;28;2071;-73
2023/02/02 08:01:00;;;;;;;;;;;;;;;3.38;100.00;96137.81;10521685;28;1977;-74
2023/02/02 08:06:02;;;;;;;;;;;;;;;3.38;100.00;96141.28;10525244;28;2183;-72
2023/02/02 08:11:05;;;;;;;;;;;;;;;3.36;100.00;96135.38;10530673;28;2027;-71
2023/02/02 08:16:07;;;;;;;;;;;;;;;3.37;100.00;96145.00;10530784;28;2120;-71
2023/02/02 08:21:10;;;;;;;;;;;;;;;3.40;100.00;96133.09;10529006;28;2086;-71
2023/02/02 08:26:12;;;;;;;;;;;;;;;3.49;100.00;96163.66;10536115;28;2002;-72
2023/02/02 08:31:15;;;;;;;;;;;;;;;3.56;100.00;96159.09;10536728;28;1955;-73
2023/02/02 08:36:17;;;;;;;;;;;;;;;3.57;100.00;96182.00;10530853;28;2094;-74
2023/02/02 08:41:20;;;;;;;;;;;;;;;3.57;100.00;96182.00;10528219;28;2124;-72
2023/02/02 08:46:22;;;;;;;;;;;;;;;3.50;100.00;96166.13;10535005;28;2002;-73
2023/02/02 08:51:24;;;;;;;;;;;;;;;3.40;100.00;96165.00;10529604;28;2064;-72
2023/02/02 08:56:27;;;;;;;;;;;;;;;3.19;100.00;96193.56;10546065;28;2082;-76
2023/02/02 09:01:29;;;;;;;;;;;;;;;3.15;100.00;96194.22;10520131;28;2109;-75
2023/02/02 09:06:32;;;;;;;;;;;;;;;3.12;100.00;96189.34;10543209;28;2045;-73
2023/02/02 09:11:34;;;;;;;;;;;;;;;3.19;100.00;96201.56;10525460;28;2029;-77
2023/02/02 09:16:36;;;;;;;;;;;;;;;3.36;100.00;96201.00;10532598;28;2101;-76
2023/02/02 09:21:39;;;;;;;;;;;;;;;3.49;100.00;96198.22;10535071;28;2128;-76
2023/02/02 09:26:41;;;;;;;;;;;;;;;3.42;100.00;96214.22;10533461;28;1974;-75
2023/02/02 09:31:44;;;;;;;;;;;;;;;3.51;100.00;96207.63;10524800;28;2081;-73
2023/02/02 09:36:47;;;;;;;;;;;;;;;3.52;100.00;96203.91;10528237;28;2063;-76
2023/02/02 09:41:51;;;;;;;;;;;;;;;3.52;100.00;96179.19;10536050;28;2124;-75
2023/02/02 09:46:53;;;;;;;;;;;;;;;3.62;100.00;96200.75;10532229;28;2056;-74
2023/02/02 09:51:55;;;;;;;;;;;;;;;3.67;100.00;96208.88;10535783;28;2140;-75
2023/02/02 09:56:58;;;;;;;;;;;;;;;3.73;100.00;96221.31;10529567;28;2047;-74
2023/02/02 10:02:00;;;;;;;;;;;;;;;3.75;100.00;96216.59;10532030;28;2033;-75
2023/02/02 10:07:03;;;;;;;;;;;;;;;4.05;100.00;96210.53;10538469;28;2183;-77
2023/02/02 10:12:05;;;;;;;;;;;;;;;4.17;100.00;96203.44;10534561;28;2069;-78
2023/02/02 10:17:11;;;;;;;;;;;;;;;4.31;100.00;96194.25;10530899;28;2087;-76
2023/02/02 10:22:14;;;;;;;;;;;;;;;4.42;100.00;96194.56;10525877;28;1942;-75
2023/02/02 10:27:16;;;;;;;;;;;;;;;4.07;100.00;96201.31;10534667;28;2053;-76
2023/02/02 10:32:21;;;;;;;;;;;;;;;4.18;100.00;96199.75;10534758;28;1958;-77
2023/02/02 10:37:24;;;;;;;;;;;;;;;4.17;100.00;96186.66;10533481;28;2110;-76
2023/02/02 10:42:26;;;;;;;;;;;;;;;4.28;100.00;96194.72;10533782;28;2057;-78
2023/02/02 10:47:29;;;;;;;;;;;;;;;4.25;100.00;96173.06;10525383;28;2061;-74
2023/02/02 10:52:31;;;;;;;;;;;;;;;4.20;100.00;96195.03;10525731;28;2048;-75
2023/02/02 10:57:34;;;;;;;;;;;;;;;4.22;100.00;96195.63;10525987;28;2156;-75
2023/02/02 11:02:36;;;;;;;;;;;;;;;4.13;100.00;96174.84;10531254;28;2169;-79
2023/02/02 11:07:39;;;;;;;;;;;;;;;4.05;100.00;96199.91;10527949;28;2065;-77
2023/02/02 11:12:41;;;;;;;;;;;;;;;4.10;100.00;96194.72;10529629;28;2017;-74
2023/02/02 11:17:44;;;;;;;;;;;;;;;4.08;100.00;96188.84;10526711;28;2099;-76
2023/02/02 11:22:46;;;;;;;;;;;;;;;4.05;100.00;96208.69;10528503;28;2069;-77
2023/02/02 11:27:49;;;;;;;;;;;;;;;4.16;100.00;96201.81;10533370;28;2035;-77
2023/02/02 11:32:51;;;;;;;;;;;;;;;4.00;100.00;96205.06;10529812;28;2078;-76
2023/02/02 11:37:54;;;;;;;;;;;;;;;4.01;100.00;96193.41;10525558;28;2029;-77
2023/02/02 11:42:56;;;;;;;;;;;;;;;3.96;100.00;96206.56;10527817;28;2037;-77
2023/02/02 11:47:59;;;;;;;;;;;;;;;3.90;100.00;96200.28;10536037;28;2074;-77
2023/02/02 11:53:01;;;;;;;;;;;;;;;3.90;100.00;96192.28;10525703;28;2069;-76
2023/02/02 11:58:04;;;;;;;;;;;;;;;3.96;100.00;96182.63;10527318;28;2065;-76
2023/02/02 12:03:06;;;;;;;;;;;;;;;4.07;100.00;96192.50;10525924;28;1982;-78
2023/02/02 12:08:09;;;;;;;;;;;;;;;3.95;100.00;96178.34;10535977;28;2072;-77
2023/02/02 12:13:12;;;;;;;;;;;;;;;3.84;100.00;96200.34;10516853;28;2142;-77
2023/02/02 12:18:14;;;;;;;;;;;;;;;3.85;100.00;96213.41;10519834;28;2125;-76
2023/02/02 12:23:17;;;;;;;;;;;;;;;3.76;100.00;96175.69;10509026;28;1978;-77
2023/02/02 12:28:19;;;;;;;;;;;;;;;3.72;100.00;96222.34;10532064;28;2018;-77
2023/02/02 12:33:21;;;;;;;;;;;;;;;3.56;100.00;96198.97;10535341;28;1985;-77
2023/02/02 12:38:24;;;;;;;;;;;;;;;3.47;100.00;96200.28;10531426;28;2109;-76
2023/02/02 12:43:27;;;;;;;;;;;;;;;3.44;100.00;96208.72;10531149;28;2051;-77
2023/02/02 12:48:29;;;;;;;;;;;;;;;3.49;100.00;96190.25;10530784;28;2065;-77
2023/02/02 12:53:31;;;;;;;;;;;;;;;3.53;100.00;96212.72;10526700;28;2052;-76
2023/02/02 12:58:34;;;;;;;;;;;;;;;3.52;100.00;96217.22;10507817;28;2047;-78
2023/02/02 13:03:36;;;;;;;;;;;;;;;3.44;100.00;96214.03;10531300;28;2073;-77
2023/02/02 13:08:39;;;;;;;;;;;;;;;3.38;100.00;96229.00;10527067;28;2001;-76
2023/02/02 13:13:41;;;;;;;;;;;;;;;3.30;100.00;96231.09;10526094;28;2101;-76
2023/02/02 13:18:44;;;;;;;;;;;;;;;3.17;100.00;96235.47;10520214;28;2049;-75
2023/02/02 13:23:47;;;;;;;;;;;;;;;3.09;100.00;96248.22;10522050;28;2129;-75
2023/02/02 13:28:49;;;;;;;;;;;;;;;3.09;100.00;96269.47;10523109;28;2125;-76
2023/02/02 13:33:52;;;;;;;;;;;;;;;3.07;100.00;96272.34;10526298;28;2077;-76
2023/02/02 13:38:54;;;;;;;;;;;;;;;3.10;100.00;96279.03;10535548;28;2142;-75
2023/02/02 13:43:57;;;;;;;;;;;;;;;3.11;100.00;96278.00;10508492;28;1984;-76
2023/02/02 13:48:59;;;;;;;;;;;;;;;3.07;100.00;96288.28;10527671;28;2021;-78
2023/02/02 13:54:02;;;;;;;;;;;;;;;3.06;100.00;96280.53;10523773;28;1950;-77
2023/02/02 13:59:04;;;;;;;;;;;;;;;3.07;100.00;96269.69;10526848;28;2421;-76
2023/02/02 14:04:07;;;;;;;;;;;;;;;2.99;100.00;96296.50;10526309;28;2061;-75
2023/02/02 14:09:10;;;;;;;;;;;;;;;2.99;100.00;96293.84;10522532;28;1963;-75
2023/02/02 14:19:32;;;;;;;;;;;;;;;3.03;100.00;96308.31;10531028;28;2043;-75
2023/02/02 14:24:35;;;;;;;;;;;;;;;3.05;100.00;96300.94;10541077;28;3938;-73
2023/02/02 14:29:39;;;;;;;;;;;;;;;3.02;100.00;96314.66;10529137;28;2049;-73
2023/02/02 14:34:42;;;;;;;;;;;;;;;3.04;100.00;96312.59;10535170;28;2089;-74
2023/02/02 14:39:44;;;;;;;;;;;;;;;3.00;100.00;96329.19;10539648;28;2002;-75
2023/02/02 14:44:46;;;;;;;;;;;;;;;3.01;100.00;96325.50;10510966;28;2002;-74
2023/02/02 14:49:49;;;;;;;;;;;;;;;2.98;100.00;96332.03;10535686;28;1966;-76
2023/02/02 14:54:51;;;;;;;;;;;;;;;3.03;100.00;96329.56;10532289;28;1994;-75
2023/02/02 14:59:54;;;;;;;;;;;;;;;3.00;100.00;96330.00;10533762;28;2068;-76
2023/02/02 15:04:57;;;;;;;;;;;;;;;3.01;100.00;96328.16;10528546;28;2065;-75
2023/02/02 15:09:59;;;;;;;;;;;;;;;2.98;100.00;96326.72;10533541;28;2122;-74
2023/02/02 15:15:02;;;;;;;;;;;;;;;2.98;100.00;96334.69;10531551;28;2374;-77
2023/02/02 15:20:04;;;;;;;;;;;;;;;3.01;100.00;96352.88;10519471;28;2036;-76
2023/02/02 15:25:07;;;;;;;;;;;;;;;3.00;100.00;96345.13;10532071;28;2137;-77
2023/02/02 15:30:10;;;;;;;;;;;;;;;2.92;100.00;96367.41;10519756;28;1996;-77
2023/02/02 15:35:12;;;;;;;;;;;;;;;2.95;100.00;96367.00;10532959;28;2399;-76
2023/02/02 15:40:14;;;;;;;;;;;;;;;2.94;100.00;96368.84;10534287;28;1954;-77
2023/02/02 15:45:17;;;;;;;;;;;;;;;2.91;100.00;96369.22;10537207;28;2014;-78
2023/02/02 15:50:19;;;;;;;;;;;;;;;2.95;100.00;96365.16;10516241;28;2051;-76
2023/02/02 15:55:22;;;;;;;;;;;;;;;2.92;100.00;96385.97;10534456;28;1998;-76
2023/02/02 16:00:25;;;;;;;;;;;;;;;2.84;100.00;96397.66;10532840;28;2055;-77
2023/02/02 16:05:27;;;;;;;;;;;;;;;2.87;100.00;96399.09;10536357;28;2038;-75
2023/02/02 16:10:30;;;;;;;;;;;;;;;2.82;100.00;96404.22;10540980;28;2052;-74
2023/02/02 16:15:32;;;;;;;;;;;;;;;2.82;100.00;96414.84;10537168;28;2056;-74
2023/02/02 16:20:35;;;;;;;;;;;;;;;2.88;100.00;96408.69;10536983;28;1958;-74
2023/02/02 16:25:37;;;;;;;;;;;;;;;2.89;100.00;96412.97;10540269;28;2177;-75
2023/02/02 16:30:40;;;;;;;;;;;;;;;2.95;100.00;96417.44;10531573;28;2065;-74
2023/02/02 16:35:42;;;;;;;;;;;;;;;2.95;100.00;96449.31;10539533;28;2041;-75
2023/02/02 16:40:44;;;;;;;;;;;;;;;3.05;100.00;96449.66;10537188;28;2005;-74
2023/02/02 16:45:47;;;;;;;;;;;;;;;3.04;100.00;96450.69;10529810;28;2089;-74
2023/02/02 16:50:49;;;;;;;;;;;;;;;3.09;100.00;96450.09;10532759;28;2101;-75
2023/02/02 16:55:52;;;;;;;;;;;;;;;3.09;100.00;96471.34;10531436;28;2020;-74
2023/02/02 17:00:54;;;;;;;;;;;;;;;3.15;100.00;96473.97;10532464;28;2260;-75
2023/02/02 17:06:13;;;;;;;;;;;;;;;3.11;100.00;96464.78;10531841;28;2029;-77
2023/02/02 17:11:16;;;;;;;;;;;;;;;3.16;100.00;96483.56;10524992;28;2127;-76
2023/02/02 17:16:18;;;;;;;;;;;;;;;3.14;100.00;96490.94;10533572;28;1923;-76
2023/02/02 17:21:21;;;;;;;;;;;;;;;3.20;100.00;96489.28;10537116;28;1962;-74
2023/02/02 17:26:23;;;;;;;;;;;;;;;3.19;100.00;96488.47;10531380;28;2000;-74
2023/02/02 17:31:26;;;;;;;;;;;;;;;3.19;100.00;96493.78;10527950;28;2005;-75
2023/02/02 17:36:28;;;;;;;;;;;;;;;3.23;100.00;96499.47;10542922;28;2006;-76
2023/02/02 17:41:31;;;;;;;;;;;;;;;3.27;100.00;96511.34;10527590;28;1997;-76
2023/02/02 17:46:34;;;;;;;;;;;;;;;3.31;100.00;96520.53;10527993;28;2146;-77
2023/02/02 17:51:40;;;;;;;;;;;;;;;3.34;100.00;96498.03;10550476;27;2069;-76
2023/02/02 17:56:42;;;;;;;;;;;;;;;3.27;100.00;96515.84;10525567;28;2068;-77
2023/02/02 18:01:46;;;;;;;;;;;;;;;3.35;100.00;96535.00;10528041;28;2042;-75
2023/02/02 18:06:48;;;;;;;;;;;;;;;3.32;100.00;96546.06;10531212;28;2185;-75
2023/02/02 18:11:51;;;;;;;;;;;;;;;3.35;100.00;96558.94;10525631;28;2028;-76
2023/02/02 18:16:54;;;;;;;;;;;;;;;3.38;100.00;96552.41;10524327;28;2053;-76
2023/02/02 18:21:57;;;;;;;;;;;;;;;3.36;100.00;96552.59;10503755;28;2025;-75
2023/02/02 18:26:59;;;;;;;;;;;;;;;3.40;100.00;96551.16;10522179;28;1986;-76
2023/02/02 18:32:02;;;;;;;;;;;;;;;3.31;100.00;96567.50;10524091;28;2156;-76
2023/02/02 18:37:04;;;;;;;;;;;;;;;3.27;100.00;96574.28;10521154;28;1939;-76
2023/02/02 18:42:07;;;;;;;;;;;;;;;3.15;100.00;96582.06;10527507;28;1986;-77
2023/02/02 18:47:09;;;;;;;;;;;;;;;3.08;100.00;96590.06;10521929;28;2024;-79
2023/02/02 18:52:12;;;;;;;;;;;;;;;3.02;100.00;96614.78;10523617;28;2129;-75
2023/02/02 18:57:14;;;;;;;;;;;;;;;2.93;100.00;96605.41;10528251;28;2329;-72
2023/02/02 19:02:17;;;;;;;;;;;;;;;2.89;100.00;96610.28;10520553;28;2362;-70
2023/02/02 19:12:39;;;;;;;;;;;;;;;2.89;100.00;96614.78;10519939;28;2346;-72
2023/02/02 19:17:42;;;;;;;;;;;;;;;2.90;100.00;96621.72;10516116;28;1915;-72
2023/02/02 19:22:44;;;;;;;;;;;;;;;2.90;100.00;96633.16;10520877;28;2306;-72
2023/02/02 19:27:47;;;;;;;;;;;;;;;2.80;100.00;96627.47;10522339;28;1973;-72
2023/02/02 19:32:49;;;;;;;;;;;;;;;2.84;100.00;96639.28;10527792;28;1965;-72
2023/02/02 19:37:51;;;;;;;;;;;;;;;2.85;100.00;96626.84;10523326;28;2441;-72
2023/02/02 19:42:54;;;;;;;;;;;;;;;2.85;100.00;96645.41;10522687;28;2719;-72
2023/02/02 19:47:56;;;;;;;;;;;;;;;2.81;100.00;96649.53;10528095;28;1939;-71
2023/02/02 19:53:01;;;;;;;;;;;;;;;2.88;100.00;96642.38;10526143;28;2338;-71
2023/02/02 19:58:03;;;;;;;;;;;;;;;2.88;100.00;96660.97;10524911;28;2348;-70
2023/02/02 20:03:06;;;;;;;;;;;;;;;2.87;100.00;96672.59;10520557;28;2318;-69
2023/02/02 20:08:09;;;;;;;;;;;;;;;2.84;100.00;96670.34;10535472;28;2390;-69
2023/02/02 20:13:11;;;;;;;;;;;;;;;2.77;100.00;96669.53;10535436;28;2330;-71
2023/02/02 20:18:14;;;;;;;;;;;;;;;2.79;100.00;96692.19;10531927;28;2384;-73
2023/02/02 20:23:16;;;;;;;;;;;;;;;2.82;100.00;96683.00;10528081;28;2345;-73
2023/02/02 20:28:18;;;;;;;;;;;;;;;2.82;100.00;96693.63;10528053;28;2409;-71
2023/02/02 20:33:21;;;;;;;;;;;;;;;2.89;100.00;96699.78;10533204;28;2329;-71
2023/02/02 20:38:23;;;;;;;;;;;;;;;2.85;100.00;96691.38;10523472;28;2242;-69
2023/02/02 20:43:26;;;;;;;;;;;;;;;2.88;100.00;96692.81;10536746;28;2276;-71
2023/02/02 20:48:29;;;;;;;;;;;;;;;2.90;100.00;96694.25;10528614;28;1946;-69
2023/02/02 20:53:31;;;;;;;;;;;;;;;2.95;100.00;96699.78;10524290;28;2298;-70
2023/02/02 20:58:34;;;;;;;;;;;;;;;2.97;100.00;96700.38;10524420;28;2341;-69
2023/02/02 21:03:36;;;;;;;;;;;;;;;2.92;100.00;96716.09;10522501;28;2424;-69
2023/02/02 21:08:39;;;;;;;;;;;;;;;2.93;100.00;96711.63;10514955;28;2361;-69
2023/02/02 21:13:41;;;;;;;;;;;;;;;2.87;100.00;96718.56;10524279;28;1966;-69
2023/02/02 21:18:44;;;;;;;;;;;;;;;2.96;100.00;96716.53;10534757;28;1982;-69
2023/02/02 21:23:50;;;;;;;;;;;;;;;2.94;100.00;96721.22;10524923;28;2368;-68
2023/02/02 21:28:52;;;;;;;;;;;;;;;2.91;100.00;96718.97;10525111;28;2275;-67
2023/02/02 21:33:55;;;;;;;;;;;;;;;2.92;100.00;96726.72;10526843;28;2346;-70
2023/02/02 21:38:57;;;;;;;;;;;;;;;2.94;100.00;96730.00;10526587;28;2028;-67
2023/02/02 21:43:59;;;;;;;;;;;;;;;2.91;100.00;96727.75;10526059;28;2429;-69
2023/02/02 21:49:02;;;;;;;;;;;;;;;2.95;100.00;96725.53;10528609;28;2684;-69
2023/02/02 21:54:04;;;;;;;;;;;;;;;2.94;100.00;96713.25;10526991;28;2137;-67
2023/02/02 21:59:07;;;;;;;;;;;;;;;2.94;100.00;96714.09;10508230;28;2324;-71
2023/02/02 22:04:09;;;;;;;;;;;;;;;2.98;100.00;96709.16;10524997;28;2338;-65
2023/02/02 22:09:11;;;;;;;;;;;;;;;2.96;100.00;96720.00;10524539;28;2278;-67
2023/02/02 22:14:14;;;;;;;;;;;;;;;3.01;100.00;96711.44;10528005;28;2337;-68
2023/02/02 22:19:16;;;;;;;;;;;;;;;3.02;100.00;96704.28;10523121;28;2346;-68
2023/02/02 22:24:19;;;;;;;;;;;;;;;2.98;100.00;96714.47;10527543;28;2319;-68
2023/02/02 22:29:23;;;;;;;;;;;;;;;3.04;100.00;96729.59;10524548;28;2278;-69
2023/02/02 22:34:25;;;;;;;;;;;;;;;3.03;100.00;96729.81;10525216;28;2323;-72
2023/02/02 22:39:28;;;;;;;;;;;;;;;3.05;100.00;96731.25;10515791;28;1923;-74
2023/02/02 22:44:30;;;;;;;;;;;;;;;3.07;100.00;96729.22;10520070;28;2298;-68
2023/02/02 22:49:32;;;;;;;;;;;;;;;3.16;100.00;96732.47;10525078;28;2314;-68
2023/02/02 22:54:35;;;;;;;;;;;;;;;3.20;100.00;96747.00;10524531;28;2305;-69
2023/02/02 22:59:37;;;;;;;;;;;;;;;3.19;100.00;96748.84;10525732;28;2330;-68
2023/02/02 23:04:39;;;;;;;;;;;;;;;3.19;100.00;96751.50;10521712;28;2302;-68
2023/02/02 23:09:42;;;;;;;;;;;;;;;3.23;100.00;96747.41;10517977;28;2062;-67
2023/02/02 23:14:44;;;;;;;;;;;;;;;3.22;100.00;96756.41;10522778;28;2783;-67
2023/02/02 23:19:47;;;;;;;;;;;;;;;3.21;100.00;96754.78;10520186;28;2294;-67
2023/02/02 23:24:49;;;;;;;;;;;;;;;3.23;100.00;96743.94;10526376;28;2266;-68
2023/02/02 23:29:51;;;;;;;;;;;;;;;3.24;100.00;96756.19;10521119;28;2341;-68
2023/02/02 23:34:53;;;;;;;;;;;;;;;3.19;100.00;96750.69;10520731;28;2098;-68
2023/02/02 23:39:56;;;;;;;;;;;;;;;3.21;100.00;96761.91;10529406;28;2496;-67
2023/02/02 23:44:58;;;;;;;;;;;;;;;3.24;100.00;96746.41;10529450;28;2463;-67
2023/02/02 23:50:01;;;;;;;;;;;;;;;3.19;100.00;96732.09;10529459;28;2302;-68
2023/02/02 23:55:03;;;;;;;;;;;;;;;3.17;100.00;96723.47;10525190;28;2349;-68
